CheckWX is a tool to help pilots better visualize weather data.  It is not intended as a substitute for an official pre-flight weather briefing.

13:41:44 UTC

EGKK TAF
London Gatwick Airport
London, United Kingdom
TAF EGKK 201109Z 2012/2118 23012KT 9999 SCT025 PROB30 TEMPO 2012/2016 24015G25KT 4000 +SHRA

Jul-20@
12:00 UTC

Jul-20 @ 12:00 UTC

Jul-21@
18:00 UTC

Jul-21 @ 18:00 UTC

TAF EGKK 201109Z 2012/2118 23012KT 9999 SCT025
Wind
  • 230° at 12 KTS
Cloud Levels
  • Scattered at 2,500' AGL

Jul-20@
12:00 UTC

Jul-20 @ 12:00 UTC

Jul-20@
16:00 UTC

Jul-20 @ 16:00 UTC

PROB30 TEMPO 2012/2016 24015G25KT 4000 +SHRA

Temporary - 30% Likelihood

Temporary - 30% Likelihood during this time.

Wind
  • 240° at 15 KTS
  • {Gusting to 25 KTS
Conditions
Heavy Rain